Time;durP1;ratioP1;P1;durP2;ratioP2;P2;SDS_P1;SDS_P2;PMS_P1;PMS_P2;Temp;Humidity;BMP_temperature;BMP_pressure;BME280_temperature;BME280_humidity;BME280_pressure;Samples;Min_cycle;Max_cycle;Signal;HPM_P1;HPM_P2
2022/12/01 00:01:00;;;;;;;;;;;;;;;10.78;59.11;101497.53;4968692;28;8210;-71
2022/12/01 00:03:28;;;;;;;;;;;;;;;10.77;59.42;101493.22;4980667;28;6808;-73
2022/12/01 00:06:14;;;;;;;;;;;;;;;10.76;59.14;101496.56;4964899;28;6919;-71
2022/12/01 00:10:24;;;;;;;;;;;;;;;10.75;59.46;101497.34;4973977;28;6816;-72
2022/12/01 00:11:26;;;;;;;;;;;;;;;10.75;59.46;101494.78;4973646;28;6909;-72
2022/12/01 00:13:51;;;;;;;;;;;;;;;10.74;59.07;101496.44;4969081;28;6879;-72
2022/12/01 00:16:17;;;;;;;;;;;;;;;10.75;59.68;101494.78;4971141;28;6776;-72
2022/12/01 00:18:43;;;;;;;;;;;;;;;10.75;59.78;101487.09;4976027;28;6780;-73
2022/12/01 00:21:18;;;;;;;;;;;;;;;10.74;59.20;101488.75;4969135;28;7182;-71
2022/12/01 00:23:47;;;;;;;;;;;;;;;10.73;59.83;101486.13;4976608;28;6796;-72
2022/12/01 00:26:14;;;;;;;;;;;;;;;10.72;59.87;101486.88;4971973;28;6800;-71
2022/12/01 00:28:40;;;;;;;;;;;;;;;10.70;59.60;101487.66;4962856;28;7309;-72
2022/12/01 00:31:11;;;;;;;;;;;;;;;10.69;59.34;101493.59;4970374;28;6863;-72
2022/12/01 00:33:38;;;;;;;;;;;;;;;10.71;59.86;101488.56;4974315;28;8259;-73
2022/12/01 00:36:05;;;;;;;;;;;;;;;10.70;59.74;101479.97;4981023;28;7217;-71
2022/12/01 00:38:31;;;;;;;;;;;;;;;10.70;59.86;101487.66;4965378;28;7075;-72
2022/12/01 00:40:57;;;;;;;;;;;;;;;10.69;59.49;101488.47;4972909;28;7179;-72
2022/12/01 00:43:23;;;;;;;;;;;;;;;10.66;59.95;101480.59;4981121;28;10106;-71
2022/12/01 00:45:49;;;;;;;;;;;;;;;10.67;59.56;101487.47;4972215;28;6796;-72
2022/12/01 00:48:15;;;;;;;;;;;;;;;10.66;60.15;101474.56;4969083;28;6954;-72
2022/12/01 00:50:41;;;;;;;;;;;;;;;10.64;59.51;101479.59;4974422;28;6972;-71
2022/12/01 00:53:07;;;;;;;;;;;;;;;10.62;59.79;101481.19;4982605;28;6796;-71
2022/12/01 00:55:33;;;;;;;;;;;;;;;10.61;59.89;101484.50;4969530;28;6768;-72
2022/12/01 00:57:58;;;;;;;;;;;;;;;10.61;59.49;101488.75;4974940;28;8489;-70
2022/12/01 01:00:24;;;;;;;;;;;;;;;10.61;59.86;101484.50;4974489;28;8409;-72
2022/12/01 01:02:49;;;;;;;;;;;;;;;10.61;59.99;101479.38;4972609;28;6772;-72
2022/12/01 01:05:15;;;;;;;;;;;;;;;10.63;59.99;101488.09;4971391;28;7198;-72
2022/12/01 01:07:41;;;;;;;;;;;;;;;10.62;60.16;101488.88;4968009;28;6764;-72
2022/12/01 01:10:06;;;;;;;;;;;;;;;10.64;59.65;101491.53;4976808;28;7048;-71
2022/12/01 01:12:32;;;;;;;;;;;;;;;10.65;59.81;101490.72;4974086;28;6780;-71
2022/12/01 01:14:58;;;;;;;;;;;;;;;10.65;59.99;101494.19;4973722;28;7479;-73
2022/12/01 01:17:23;;;;;;;;;;;;;;;10.65;59.68;101494.19;4972063;28;6813;-72
2022/12/01 01:19:52;;;;;;;;;;;;;;;10.65;59.54;101501.88;4972018;28;6803;-71
2022/12/01 01:22:18;;;;;;;;;;;;;;;10.65;59.86;101498.41;4976802;28;7035;-72
2022/12/01 01:24:43;;;;;;;;;;;;;;;10.63;59.82;101503.47;4973768;28;6988;-71
2022/12/01 01:27:09;;;;;;;;;;;;;;;10.63;59.88;101503.47;4972484;28;6836;-72
2022/12/01 01:29:35;;;;;;;;;;;;;;;10.63;59.54;101502.56;4969680;28;8162;-71
2022/12/01 01:32:01;;;;;;;;;;;;;;;10.62;59.97;101501.69;4970003;28;6795;-73
2022/12/01 01:34:27;;;;;;;;;;;;;;;10.64;60.39;101512.94;4970191;28;6791;-73
2022/12/01 01:36:53;;;;;;;;;;;;;;;10.63;59.86;101503.47;4970999;28;6851;-71
2022/12/01 01:39:19;;;;;;;;;;;;;;;10.63;60.26;101510.25;4990542;28;6776;-71
2022/12/01 01:41:45;;;;;;;;;;;;;;;10.63;60.00;101521.41;4973163;28;6784;-71
2022/12/01 01:44:54;;;;;;;;;;;;;;;10.63;59.86;101518.84;4970969;28;6780;-71
2022/12/01 01:47:29;;;;;;;;;;;;;;;10.61;59.91;101514.41;4968494;28;6800;-73
2022/12/01 01:50:05;;;;;;;;;;;;;;;10.63;60.09;101508.59;4972417;28;7251;-73
2022/12/01 01:52:35;;;;;;;;;;;;;;;10.64;59.95;101514.59;4982727;28;7957;-71
2022/12/01 01:55:01;;;;;;;;;;;;;;;10.64;60.13;101520.63;4978945;28;7158;-73
2022/12/01 01:57:32;;;;;;;;;;;;;;;10.64;60.34;101519.72;4961561;28;7216;-72
2022/12/01 02:00:16;;;;;;;;;;;;;;;10.62;59.96;101519.66;4974802;28;6800;-71
2022/12/01 02:02:45;;;;;;;;;;;;;;;10.62;60.33;101518.75;4980831;28;11366;-71
2022/12/01 02:05:22;;;;;;;;;;;;;;;10.62;59.88;101522.22;4958974;28;8559;-72
2022/12/01 02:07:52;;;;;;;;;;;;;;;10.60;59.90;101528.00;4982175;28;6970;-72
2022/12/01 02:10:22;;;;;;;;;;;;;;;10.59;60.00;101521.13;4982074;28;7297;-72
2022/12/01 02:13:11;;;;;;;;;;;;;;;10.58;60.41;101525.34;4977042;28;7196;-71
2022/12/01 02:15:52;;;;;;;;;;;;;;;10.55;60.17;101517.44;4967003;28;7916;-73
2022/12/01 02:18:37;;;;;;;;;;;;;;;10.54;60.30;101525.94;4970355;28;6819;-72
2022/12/01 02:21:28;;;;;;;;;;;;;;;10.51;60.50;101526.63;4973810;28;7015;-72
2022/12/01 02:24:25;;;;;;;;;;;;;;;10.49;59.98;101522.16;4973627;28;7146;-73
2022/12/01 02:27:07;;;;;;;;;;;;;;;10.47;60.23;101521.19;4972752;28;6864;-72
2022/12/01 02:30:05;;;;;;;;;;;;;;;10.48;60.10;101522.94;4972867;28;6824;-71
2022/12/01 02:33:05;;;;;;;;;;;;;;;10.48;60.84;101520.38;4965991;28;7010;-73
2022/12/01 02:35:49;;;;;;;;;;;;;;;10.50;60.54;101514.59;4974213;28;6815;-71
2022/12/01 02:38:30;;;;;;;;;;;;;;;10.58;60.57;101520.22;4976976;28;7183;-72
2022/12/01 02:41:18;;;;;;;;;;;;;;;10.59;60.50;101527.09;4972665;28;6827;-72
2022/12/01 02:44:21;;;;;;;;;;;;;;;10.57;60.37;101515.88;4980872;28;6812;-73
2022/12/01 02:46:59;;;;;;;;;;;;;;;10.54;60.53;101513.13;4977656;28;8659;-72
2022/12/01 02:49:35;;;;;;;;;;;;;;;10.54;60.53;101516.56;4970819;28;6796;-71
2022/12/01 02:52:05;;;;;;;;;;;;;;;10.52;60.04;101514.66;4973011;28;6900;-72
2022/12/01 02:54:33;;;;;;;;;;;;;;;10.49;60.24;101514.47;4957508;28;8691;-71
2022/12/01 02:56:59;;;;;;;;;;;;;;;10.47;60.25;101516.06;4976945;28;8768;-72
2022/12/01 02:59:24;;;;;;;;;;;;;;;10.45;60.27;101513.38;4987939;28;8535;-73
2022/12/01 03:02:31;;;;;;;;;;;;;;;10.45;60.07;101513.38;4973772;28;7059;-71
2022/12/01 03:05:43;;;;;;;;;;;;;;;10.47;60.78;101521.19;4972642;28;6828;-73
2022/12/01 03:08:31;;;;;;;;;;;;;;;10.46;60.82;101516.84;4974142;28;6976;-73
2022/12/01 03:10:59;;;;;;;;;;;;;;;10.47;60.28;101511.78;4956388;28;8593;-73
2022/12/01 03:13:41;;;;;;;;;;;;;;;10.50;60.66;101513.69;4973668;28;6816;-72
2022/12/01 03:16:20;;;;;;;;;;;;;;;10.57;60.29;101515.88;4973898;28;6824;-72
2022/12/01 03:18:54;;;;;;;;;;;;;;;10.65;60.28;101521.50;4941536;28;9583;-73
2022/12/01 03:21:46;;;;;;;;;;;;;;;10.70;60.19;101515.88;4969184;28;8064;-72
2022/12/01 03:24:20;;;;;;;;;;;;;;;10.75;60.07;101515.31;4972867;28;11487;-71
2022/12/01 03:26:54;;;;;;;;;;;;;;;10.77;59.54;101512.06;4982634;28;7202;-71
2022/12/01 03:29:37;;;;;;;;;;;;;;;10.81;59.90;101524.28;4977175;28;6804;-71
2022/12/01 03:32:19;;;;;;;;;;;;;;;10.81;59.74;101519.16;4963273;28;7286;-71
2022/12/01 03:35:22;;;;;;;;;;;;;;;10.77;59.81;101522.31;4976870;28;6820;-73
2022/12/01 03:38:09;;;;;;;;;;;;;;;10.67;59.74;101518.25;4988298;28;10483;-72
2022/12/01 03:40:39;;;;;;;;;;;;;;;10.62;60.25;101519.66;4974331;28;6812;-74
2022/12/01 03:43:16;;;;;;;;;;;;;;;10.58;60.13;101520.22;4982100;28;6815;-73
2022/12/01 03:46:14;;;;;;;;;;;;;;;10.55;60.05;101525.16;4973651;28;6963;-74
2022/12/01 03:48:41;;;;;;;;;;;;;;;10.48;59.68;101528.09;4977173;28;6904;-73
2022/12/01 03:52:02;;;;;;;;;;;;;;;10.44;60.62;101521.84;4976106;28;7022;-73
2022/12/01 03:55:11;;;;;;;;;;;;;;;10.42;60.63;101533.69;4975902;28;6896;-73
2022/12/01 03:58:00;;;;;;;;;;;;;;;10.37;60.79;101528.22;4972817;28;6815;-73
2022/12/01 04:00:27;;;;;;;;;;;;;;;10.37;60.37;101527.31;4982502;28;6887;-71
2022/12/01 04:03:04;;;;;;;;;;;;;;;10.35;60.51;101527.25;4965555;28;6991;-72
2022/12/01 04:05:33;;;;;;;;;;;;;;;10.35;60.75;101527.25;4983778;28;6942;-70
2022/12/01 04:08:00;;;;;;;;;;;;;;;10.38;60.19;101526.53;4979258;28;6902;-71
2022/12/01 04:10:26;;;;;;;;;;;;;;;10.45;60.19;101528.75;4980512;28;6784;-70
2022/12/01 04:12:57;;;;;;;;;;;;;;;10.50;60.40;101522.28;4981031;28;6792;-70
2022/12/01 04:15:24;;;;;;;;;;;;;;;10.53;60.45;101519.91;4976699;28;6803;-70
2022/12/01 04:17:50;;;;;;;;;;;;;;;10.56;60.00;101520.09;5000583;28;6788;-71
2022/12/01 04:20:16;;;;;;;;;;;;;;;10.57;60.04;101523.56;4984249;28;7084;-70
2022/12/01 04:22:42;;;;;;;;;;;;;;;10.55;60.54;101526.00;4981002;28;6804;-70
2022/12/01 04:25:09;;;;;;;;;;;;;;;10.59;60.21;101521.97;4979216;28;6764;-71
2022/12/01 04:27:35;;;;;;;;;;;;;;;10.57;59.66;101523.56;4973447;28;6788;-71
2022/12/01 04:30:01;;;;;;;;;;;;;;;10.53;59.83;101519.91;4975667;28;6792;-71
2022/12/01 04:32:27;;;;;;;;;;;;;;;10.51;60.09;101523.16;4976134;28;6812;-71
2022/12/01 04:34:52;;;;;;;;;;;;;;;10.45;60.02;101521.06;4974941;28;6991;-72
2022/12/01 04:37:18;;;;;;;;;;;;;;;10.41;60.71;101524.19;4974526;28;6768;-70
2022/12/01 04:39:44;;;;;;;;;;;;;;;10.39;60.52;101518.94;4976833;28;6891;-70
2022/12/01 04:42:10;;;;;;;;;;;;;;;10.38;60.20;101519.75;4972539;28;7621;-70
2022/12/01 04:44:36;;;;;;;;;;;;;;;10.37;60.48;101530.78;4974481;28;6780;-71
2022/12/01 04:47:04;;;;;;;;;;;;;;;10.38;60.41;101527.44;4977190;28;6867;-71
2022/12/01 04:49:30;;;;;;;;;;;;;;;10.39;60.95;101523.22;4979014;28;6784;-71
2022/12/01 04:51:56;;;;;;;;;;;;;;;10.39;61.09;101518.09;4979654;28;6796;-72
2022/12/01 04:54:22;;;;;;;;;;;;;;;10.37;60.52;101520.53;4975647;28;6764;-70
2022/12/01 04:56:48;;;;;;;;;;;;;;;10.36;60.73;101507.59;4984369;28;7283;-71
2022/12/01 04:59:13;;;;;;;;;;;;;;;10.34;60.99;101520.34;4967626;28;6949;-71
2022/12/01 05:01:39;;;;;;;;;;;;;;;10.34;60.84;101515.22;4967700;28;8165;-72
2022/12/01 05:04:06;;;;;;;;;;;;;;;10.35;60.48;101518.66;4988100;28;6856;-71
2022/12/01 05:06:31;;;;;;;;;;;;;;;10.33;60.81;101515.09;4969578;28;6787;-70
2022/12/01 05:09:00;;;;;;;;;;;;;;;10.31;60.60;101515.00;4971786;28;8011;-73
2022/12/01 05:11:28;;;;;;;;;;;;;;;10.32;60.93;101513.31;4969305;28;6820;-72
2022/12/01 05:13:54;;;;;;;;;;;;;;;10.31;61.06;101517.56;4972832;28;6792;-70
2022/12/01 05:16:31;;;;;;;;;;;;;;;10.31;60.89;101514.13;4974522;28;6764;-70
2022/12/01 05:21:49;;;;;;;;;;;;;;;10.28;61.34;101520.81;4974343;28;7664;-73
2022/12/01 05:24:18;;;;;;;;;;;;;;;10.30;61.21;101520.91;4968737;28;6959;-72
2022/12/01 05:26:44;;;;;;;;;;;;;;;10.30;61.31;101526.03;4974747;28;6804;-71
2022/12/01 05:29:10;;;;;;;;;;;;;;;10.33;61.32;101523.66;4976123;28;6855;-71
2022/12/01 05:31:38;;;;;;;;;;;;;;;10.33;61.48;101521.09;4967212;28;6852;-72
2022/12/01 05:34:04;;;;;;;;;;;;;;;10.34;61.20;101522.91;4969933;28;6812;-72
2022/12/01 05:36:31;;;;;;;;;;;;;;;10.35;61.40;101518.66;4969861;28;6804;-72
2022/12/01 05:38:56;;;;;;;;;;;;;;;10.35;60.62;101527.25;4975643;28;6803;-71
2022/12/01 05:41:22;;;;;;;;;;;;;;;10.34;60.55;101528.03;4977607;28;7267;-70
2022/12/01 05:43:47;;;;;;;;;;;;;;;10.34;60.69;101528.03;4974738;28;6764;-70
2022/12/01 05:46:13;;;;;;;;;;;;;;;10.35;61.21;101529.81;4980519;28;8274;-69
2022/12/01 05:48:39;;;;;;;;;;;;;;;10.34;61.30;101530.59;4973913;28;6914;-71
2022/12/01 05:51:14;;;;;;;;;;;;;;;10.34;60.66;101525.47;4984902;28;6843;-72
2022/12/01 05:53:41;;;;;;;;;;;;;;;10.33;60.86;101523.66;4978428;28;6954;-71
2022/12/01 05:56:07;;;;;;;;;;;;;;;10.34;60.81;101530.59;4968105;28;8461;-72
2022/12/01 05:58:34;;;;;;;;;;;;;;;10.35;61.45;101532.38;4975268;28;6979;-73
2022/12/01 06:01:01;;;;;;;;;;;;;;;10.37;61.00;101533.34;4976879;28;6887;-72
2022/12/01 06:03:26;;;;;;;;;;;;;;;10.36;60.96;101536.69;5000819;28;6958;-70
2022/12/01 06:05:52;;;;;;;;;;;;;;;10.37;60.77;101535.91;4983030;28;6784;-72
2022/12/01 06:08:17;;;;;;;;;;;;;;;10.36;61.08;101546.94;4981268;28;6848;-71
2022/12/01 06:10:44;;;;;;;;;;;;;;;10.34;61.31;101539.94;4981928;28;6991;-71
2022/12/01 06:13:10;;;;;;;;;;;;;;;10.33;60.96;101553.53;5002372;28;7201;-72
2022/12/01 06:15:36;;;;;;;;;;;;;;;10.31;60.69;101545.72;4970014;28;8461;-71
2022/12/01 06:18:01;;;;;;;;;;;;;;;10.28;60.93;101549.00;4981785;28;6867;-70
2022/12/01 06:20:27;;;;;;;;;;;;;;;10.26;60.72;101555.69;4976017;28;6845;-71
2022/12/01 06:22:53;;;;;;;;;;;;;;;10.25;61.32;101555.59;4961168;28;8477;-71
2022/12/01 06:25:18;;;;;;;;;;;;;;;10.27;61.20;101564.28;4973299;28;6852;-72
2022/12/01 06:27:44;;;;;;;;;;;;;;;10.29;61.20;101557.56;4971118;28;7291;-73
2022/12/01 06:30:10;;;;;;;;;;;;;;;10.28;61.04;101551.56;4974282;28;6784;-71
2022/12/01 06:32:35;;;;;;;;;;;;;;;10.30;61.63;101554.22;4974101;28;6991;-71
2022/12/01 06:35:01;;;;;;;;;;;;;;;10.30;60.71;101549.09;4974431;28;7171;-72
2022/12/01 06:37:27;;;;;;;;;;;;;;;10.30;61.17;101559.34;4968964;28;6780;-71
2022/12/01 06:39:53;;;;;;;;;;;;;;;10.30;60.43;101567.03;4976451;28;6852;-73
2022/12/01 06:42:19;;;;;;;;;;;;;;;10.30;60.82;101564.47;4970861;28;6943;-72
2022/12/01 06:44:45;;;;;;;;;;;;;;;10.30;60.54;101568.72;4976186;28;6784;-71
2022/12/01 06:47:11;;;;;;;;;;;;;;;10.28;60.30;101566.94;4974688;28;6975;-70
2022/12/01 06:49:37;;;;;;;;;;;;;;;10.29;60.48;101572.94;4973468;28;6792;-71
2022/12/01 06:52:03;;;;;;;;;;;;;;;10.30;60.97;101573.84;4975346;28;7252;-71
2022/12/01 06:54:29;;;;;;;;;;;;;;;10.31;60.45;101573.94;4975411;28;7113;-70
2022/12/01 06:56:55;;;;;;;;;;;;;;;10.32;60.42;101567.16;4978887;28;6776;-71
2022/12/01 06:59:21;;;;;;;;;;;;;;;10.32;60.95;101570.56;4971322;28;7042;-72
2022/12/01 07:01:46;;;;;;;;;;;;;;;10.32;60.06;101574.84;4974545;28;6820;-71
2022/12/01 07:04:12;;;;;;;;;;;;;;;10.33;60.03;101579.16;4982945;28;6779;-71
2022/12/01 07:06:38;;;;;;;;;;;;;;;10.33;60.42;101576.59;4996817;28;7184;-73
2022/12/01 07:09:03;;;;;;;;;;;;;;;10.32;60.11;101578.25;4976521;28;6772;-70
2022/12/01 07:11:31;;;;;;;;;;;;;;;10.32;60.11;101588.50;4974257;28;7531;-72
2022/12/01 07:13:57;;;;;;;;;;;;;;;10.33;60.15;101577.47;4978085;28;7208;-71
2022/12/01 07:16:23;;;;;;;;;;;;;;;10.32;59.93;101580.81;4970575;28;6824;-73
2022/12/01 07:18:49;;;;;;;;;;;;;;;10.33;60.59;101584.28;4980364;28;6791;-72
2022/12/01 07:21:15;;;;;;;;;;;;;;;10.31;59.62;101581.63;4976544;28;6808;-71
2022/12/01 07:23:42;;;;;;;;;;;;;;;10.30;60.01;101589.22;4973246;28;6787;-70
2022/12/01 07:26:12;;;;;;;;;;;;;;;10.28;60.21;101591.66;4973533;28;6995;-70
2022/12/01 07:28:38;;;;;;;;;;;;;;;10.32;59.87;101593.63;4986012;28;6819;-72
2022/12/01 07:31:09;;;;;;;;;;;;;;;10.36;59.93;101599.88;4975343;28;7807;-70
2022/12/01 07:33:35;;;;;;;;;;;;;;;10.32;59.26;101593.63;4974053;28;8503;-71
2022/12/01 07:36:03;;;;;;;;;;;;;;;10.33;59.80;101595.41;4962231;28;6784;-70
2022/12/01 07:38:31;;;;;;;;;;;;;;;10.34;59.36;101594.66;4961183;28;6931;-71
2022/12/01 07:41:03;;;;;;;;;;;;;;;10.30;59.90;101595.22;4973229;28;7463;-71
2022/12/01 07:43:31;;;;;;;;;;;;;;;10.26;59.76;101598.38;4967843;28;7008;-71
2022/12/01 07:46:10;;;;;;;;;;;;;;;10.25;59.41;101601.72;4958175;28;8495;-73
2022/12/01 07:48:38;;;;;;;;;;;;;;;10.22;59.52;101593.78;4962245;28;6975;-71
2022/12/01 07:51:06;;;;;;;;;;;;;;;10.21;59.44;101594.59;4966452;28;6799;-72
2022/12/01 07:53:31;;;;;;;;;;;;;;;10.18;59.63;101605.50;4960872;28;6872;-71
2022/12/01 07:55:58;;;;;;;;;;;;;;;10.18;59.59;101596.94;4960286;28;6791;-73
2022/12/01 07:58:25;;;;;;;;;;;;;;;10.20;59.44;101603.97;4956171;28;6816;-72
2022/12/01 08:00:51;;;;;;;;;;;;;;;10.20;59.32;101608.19;4964388;28;6784;-71
2022/12/01 08:03:16;;;;;;;;;;;;;;;10.21;60.24;101615.09;4973118;28;6793;-73
2022/12/01 08:05:42;;;;;;;;;;;;;;;10.22;59.86;101614.28;4981738;28;8813;-73
2022/12/01 08:08:08;;;;;;;;;;;;;;;10.24;59.87;101617.88;4968145;28;8296;-71
2022/12/01 08:10:34;;;;;;;;;;;;;;;10.24;59.17;101618.75;4984283;28;6784;-73
2022/12/01 08:12:59;;;;;;;;;;;;;;;10.24;59.07;101620.44;5001789;28;6780;-71
2022/12/01 08:15:25;;;;;;;;;;;;;;;10.25;58.92;101611.97;4981141;28;6792;-71
2022/12/01 08:17:51;;;;;;;;;;;;;;;10.25;58.92;101617.09;4977813;28;6787;-70
2022/12/01 08:20:17;;;;;;;;;;;;;;;10.24;59.69;101621.31;4979488;28;6780;-73
2022/12/01 08:22:42;;;;;;;;;;;;;;;10.24;59.52;101617.88;4978859;28;7285;-72
2022/12/01 08:25:08;;;;;;;;;;;;;;;10.26;58.94;101621.44;4971015;28;6986;-71
2022/12/01 08:27:34;;;;;;;;;;;;;;;10.30;59.24;101619.97;4977733;28;6795;-72
2022/12/01 08:30:00;;;;;;;;;;;;;;;10.32;59.35;101621.81;4977523;28;6817;-73
2022/12/01 08:32:28;;;;;;;;;;;;;;;10.37;58.80;101623.03;4982285;28;7204;-73
2022/12/01 08:34:54;;;;;;;;;;;;;;;10.39;58.97;101624.03;4976634;28;6816;-70
2022/12/01 08:37:19;;;;;;;;;;;;;;;10.39;58.80;101621.47;4978119;28;7471;-71
2022/12/01 08:39:45;;;;;;;;;;;;;;;10.36;59.01;101626.41;4974457;28;6776;-74
2022/12/01 08:42:11;;;;;;;;;;;;;;;10.35;58.91;101627.19;4979206;28;6787;-74
2022/12/01 08:44:36;;;;;;;;;;;;;;;10.37;58.44;101627.28;4978762;28;7198;-72
2022/12/01 08:47:02;;;;;;;;;;;;;;;10.36;58.51;101626.41;4995188;28;7856;-74
2022/12/01 08:49:28;;;;;;;;;;;;;;;10.38;58.30;101627.38;4978803;28;6931;-72
2022/12/01 08:51:55;;;;;;;;;;;;;;;10.41;58.43;101629.28;4978390;28;6792;-72
2022/12/01 08:54:21;;;;;;;;;;;;;;;10.44;58.89;101629.50;4977834;28;6784;-73
2022/12/01 08:56:47;;;;;;;;;;;;;;;10.46;58.58;101627.94;4978645;28;6808;-74
2022/12/01 08:59:13;;;;;;;;;;;;;;;10.49;58.37;101628.16;4969714;28;6788;-73
2022/12/01 09:01:51;;;;;;;;;;;;;;;10.55;57.99;101627.69;4980241;28;7087;-72
2022/12/01 09:04:23;;;;;;;;;;;;;;;10.55;58.57;101625.13;4992470;28;8001;-71
2022/12/01 09:06:51;;;;;;;;;;;;;;;10.56;58.05;101622.63;4983539;28;6804;-70
2022/12/01 09:09:24;;;;;;;;;;;;;;;10.56;58.18;101622.63;4978785;28;8579;-72
2022/12/01 09:11:53;;;;;;;;;;;;;;;10.57;58.19;101620.97;4983771;28;6985;-73
2022/12/01 09:14:21;;;;;;;;;;;;;;;10.59;58.35;101628.78;4980429;28;6991;-70
2022/12/01 09:16:49;;;;;;;;;;;;;;;10.61;58.39;101632.34;4960225;28;6793;-72
2022/12/01 09:19:17;;;;;;;;;;;;;;;10.63;58.26;101631.66;4982485;28;6792;-71
2022/12/01 09:21:44;;;;;;;;;;;;;;;10.65;58.02;101636.88;4977767;28;7264;-71
2022/12/01 09:24:12;;;;;;;;;;;;;;;10.66;57.99;101630.94;4980258;28;6983;-71
2022/12/01 09:26:38;;;;;;;;;;;;;;;10.68;57.96;101637.09;4981249;28;7203;-73
2022/12/01 09:29:08;;;;;;;;;;;;;;;10.70;58.15;101630.41;4979143;28;6780;-71
2022/12/01 09:31:34;;;;;;;;;;;;;;;10.73;58.07;101638.28;4979296;28;8350;-71
2022/12/01 09:34:05;;;;;;;;;;;;;;;10.75;58.13;101635.84;4979591;28;6995;-71
2022/12/01 09:36:33;;;;;;;;;;;;;;;10.77;57.96;101636.81;4994904;28;7382;-71
2022/12/01 09:38:59;;;;;;;;;;;;;;;10.79;57.76;101635.22;4979843;28;7852;-71
2022/12/01 09:41:33;;;;;;;;;;;;;;;10.78;57.84;101639.50;4972790;28;6811;-71
2022/12/01 09:44:36;;;;;;;;;;;;;;;10.78;57.53;101636.03;4981631;28;7039;-71
2022/12/01 09:47:07;;;;;;;;;;;;;;;10.77;58.10;101637.72;4976516;28;7066;-71
2022/12/01 09:49:49;;;;;;;;;;;;;;;10.80;57.78;101639.56;4976157;28;6811;-72
2022/12/01 09:52:19;;;;;;;;;;;;;;;10.80;57.73;101642.13;4979648;28;8847;-72
2022/12/01 09:54:46;;;;;;;;;;;;;;;10.81;57.66;101631.09;4975951;28;6804;-73
2022/12/01 09:57:34;;;;;;;;;;;;;;;10.81;58.25;101633.66;4973544;28;6793;-72
2022/12/01 10:00:10;;;;;;;;;;;;;;;10.81;57.62;101620.84;4977843;28;7344;-71
2022/12/01 10:03:01;;;;;;;;;;;;;;;10.83;57.80;101619.28;4982065;28;11134;-71
2022/12/01 10:05:54;;;;;;;;;;;;;;;10.82;57.80;101615.81;4978885;28;6808;-71
2022/12/01 10:08:27;;;;;;;;;;;;;;;10.84;57.73;101610.81;4979833;28;6947;-71
2022/12/01 10:11:00;;;;;;;;;;;;;;;10.88;57.93;101614.47;4982444;28;7056;-70
2022/12/01 10:13:28;;;;;;;;;;;;;;;10.91;57.87;101606.97;4998172;28;7015;-71
2022/12/01 10:16:11;;;;;;;;;;;;;;;10.91;57.87;101602.72;4976408;28;6788;-72
2022/12/01 10:19:04;;;;;;;;;;;;;;;10.93;57.78;101601.16;4972481;28;7200;-71
2022/12/01 10:22:08;;;;;;;;;;;;;;;10.96;57.74;101598.78;4974832;28;6875;-71
2022/12/01 10:25:11;;;;;;;;;;;;;;;11.01;58.04;101598.16;4976512;28;6824;-72
2022/12/01 10:28:13;;;;;;;;;;;;;;;11.02;57.72;101605.13;4976543;28;6820;-71
2022/12/01 10:30:52;;;;;;;;;;;;;;;11.04;58.06;101604.41;4974691;28;7967;-72
2022/12/01 10:33:43;;;;;;;;;;;;;;;11.07;58.05;101598.59;4990972;28;7215;-73
2022/12/01 10:36:09;;;;;;;;;;;;;;;11.09;57.86;101597.91;4977486;28;6827;-72
2022/12/01 10:38:38;;;;;;;;;;;;;;;11.14;57.56;101595.63;4964205;28;8730;-71
2022/12/01 10:41:12;;;;;;;;;;;;;;;11.16;57.12;101600.88;4965465;28;9360;-71
2022/12/01 10:43:50;;;;;;;;;;;;;;;11.16;57.20;101601.75;4981110;28;6811;-71
2022/12/01 10:46:53;;;;;;;;;;;;;;;11.10;57.25;101593.63;4975194;28;6804;-73
2022/12/01 10:49:20;;;;;;;;;;;;;;;11.04;57.64;101593.25;4979065;28;6816;-72
2022/12/01 10:51:52;;;;;;;;;;;;;;;11.00;57.65;101597.31;4980185;28;6983;-71
2022/12/01 10:54:19;;;;;;;;;;;;;;;10.96;57.69;101585.03;4994444;28;7300;-73
2022/12/01 10:56:49;;;;;;;;;;;;;;;10.93;57.67;101585.75;4977976;28;6807;-70
2022/12/01 10:59:27;;;;;;;;;;;;;;;10.92;57.77;101588.22;4978264;28;7153;-71
2022/12/01 11:01:55;;;;;;;;;;;;;;;10.91;57.69;101591.56;4975978;28;6800;-71
2022/12/01 11:04:43;;;;;;;;;;;;;;;10.91;58.00;101589.00;4998033;28;7922;-73
2022/12/01 11:07:22;;;;;;;;;;;;;;;10.88;57.95;101582.00;4982220;28;6815;-70
2022/12/01 11:10:12;;;;;;;;;;;;;;;10.87;58.03;101580.22;4964008;28;6918;-71
2022/12/01 11:12:39;;;;;;;;;;;;;;;10.85;58.05;101579.22;4983938;28;6872;-72
2022/12/01 11:15:06;;;;;;;;;;;;;;;10.87;58.18;101579.34;4979993;28;7294;-72
2022/12/01 11:17:41;;;;;;;;;;;;;;;10.89;57.80;101585.44;4982553;28;7289;-71
2022/12/01 11:20:35;;;;;;;;;;;;;;;10.86;58.04;101581.00;4982973;28;7028;-71
2022/12/01 11:23:27;;;;;;;;;;;;;;;10.80;57.90;101578.03;4978838;28;6816;-71
2022/12/01 11:26:03;;;;;;;;;;;;;;;10.80;57.83;101583.16;4980048;28;6812;-71
2022/12/01 11:28:32;;;;;;;;;;;;;;;10.82;58.33;101574.78;4981699;28;6812;-72
2022/12/01 11:31:09;;;;;;;;;;;;;;;10.84;58.23;101570.63;4982227;28;6812;-71
2022/12/01 11:33:55;;;;;;;;;;;;;;;10.86;58.01;101577.53;4985272;28;6792;-72
2022/12/01 11:36:46;;;;;;;;;;;;;;;10.83;58.45;101575.69;4979241;28;6827;-71
2022/12/01 11:39:36;;;;;;;;;;;;;;;10.79;58.16;101571.13;4975289;28;6800;-71
2022/12/01 11:42:27;;;;;;;;;;;;;;;10.76;58.14;101565.81;4985047;28;6808;-72
2022/12/01 11:45:38;;;;;;;;;;;;;;;10.76;58.12;101565.81;4979040;28;7602;-72
2022/12/01 11:48:17;;;;;;;;;;;;;;;10.76;58.09;101568.38;4981621;28;6924;-72
2022/12/01 11:51:09;;;;;;;;;;;;;;;10.74;58.04;101562.25;4979100;28;6824;-70
2022/12/01 11:53:39;;;;;;;;;;;;;;;10.70;57.95;101567.16;4985043;28;7349;-72
2022/12/01 11:56:27;;;;;;;;;;;;;;;10.66;58.59;101560.06;4979807;28;6784;-71
2022/12/01 11:59:09;;;;;;;;;;;;;;;10.64;58.33;101564.22;4983234;28;8582;-71
2022/12/01 12:02:08;;;;;;;;;;;;;;;10.64;58.18;101571.91;4981411;28;7856;-73
2022/12/01 12:05:02;;;;;;;;;;;;;;;10.62;58.90;101564.88;4978604;28;7003;-71
2022/12/01 12:07:55;;;;;;;;;;;;;;;10.62;58.93;101558.09;4986589;28;7035;-71
2022/12/01 12:10:53;;;;;;;;;;;;;;;10.67;58.65;101556.72;4974928;28;6804;-71
2022/12/01 12:13:56;;;;;;;;;;;;;;;10.73;58.35;101556.22;4986396;28;7139;-70
2022/12/01 12:16:53;;;;;;;;;;;;;;;10.76;58.53;101551.28;4980412;28;6888;-70
2022/12/01 12:19:51;;;;;;;;;;;;;;;10.75;58.73;101558.91;4984008;28;6839;-72
2022/12/01 12:23:03;;;;;;;;;;;;;;;10.73;58.50;101550.22;4980278;28;7066;-71
2022/12/01 12:26:00;;;;;;;;;;;;;;;10.68;58.80;101545.66;4982587;28;6963;-71
2022/12/01 12:28:55;;;;;;;;;;;;;;;10.63;58.93;101547.06;4977442;28;6812;-71
2022/12/01 12:31:51;;;;;;;;;;;;;;;10.59;58.86;101552.75;4984960;28;6815;-72
2022/12/01 12:34:49;;;;;;;;;;;;;;;10.54;58.76;101544.75;4978676;28;6815;-71
2022/12/01 12:37:30;;;;;;;;;;;;;;;10.59;58.78;101539.94;4982321;28;6950;-71
2022/12/01 12:40:20;;;;;;;;;;;;;;;10.65;58.68;101542.00;4980477;28;6811;-72
2022/12/01 12:42:56;;;;;;;;;;;;;;;10.64;58.60;101536.00;4980071;28;6807;-72
2022/12/01 12:45:46;;;;;;;;;;;;;;;10.66;59.06;101534.44;4980131;28;7825;-73
2022/12/01 12:48:37;;;;;;;;;;;;;;;10.72;58.75;101539.06;4981816;28;6811;-72
2022/12/01 12:51:30;;;;;;;;;;;;;;;10.74;59.04;101528.91;4971351;28;7082;-70
2022/12/01 12:54:09;;;;;;;;;;;;;;;10.76;58.70;101533.34;4976611;28;7177;-70
2022/12/01 12:56:36;;;;;;;;;;;;;;;10.74;58.70;101534.03;4979183;28;6800;-70
2022/12/01 12:59:40;;;;;;;;;;;;;;;10.68;58.58;101542.22;4980386;28;7040;-70
2022/12/01 13:02:25;;;;;;;;;;;;;;;10.62;58.49;101539.25;4970824;28;6823;-71
2022/12/01 13:05:18;;;;;;;;;;;;;;;10.62;58.97;101535.03;4982295;28;6804;-71
2022/12/01 13:08:04;;;;;;;;;;;;;;;10.64;59.00;101536.00;4980383;28;8978;-73
2022/12/01 13:10:45;;;;;;;;;;;;;;;10.65;59.03;101531.75;4974559;28;6807;-70
2022/12/01 13:13:27;;;;;;;;;;;;;;;10.63;58.91;101526.53;4976410;28;7173;-73
2022/12/01 13:15:57;;;;;;;;;;;;;;;10.60;59.51;101523.75;4970355;28;6807;-70
2022/12/01 13:18:54;;;;;;;;;;;;;;;10.65;59.04;101519.84;4966627;28;8728;-71
2022/12/01 13:21:22;;;;;;;;;;;;;;;10.68;59.03;101511.47;4977003;28;6839;-71
2022/12/01 13:23:51;;;;;;;;;;;;;;;10.66;59.11;101513.91;4977643;28;6816;-71